sensor_id;sensor_type;location;lat;lon;timestamp;pressure;altitude;pressure_sealevel;temperature;humidity
18569;BME280;14780;48.316;-1.050;2022-11-20T00:00:21;98878.88;;;22.89;42.88
18569;BME280;14780;48.316;-1.050;2022-11-20T00:03:06;98872.63;;;22.88;42.95
18569;BME280;14780;48.316;-1.050;2022-11-20T00:05:51;98869.91;;;22.88;42.92
18569;BME280;14780;48.316;-1.050;2022-11-20T00:08:36;98865.50;;;22.87;42.86
18569;BME280;14780;48.316;-1.050;2022-11-20T00:11:22;98858.41;;;22.86;42.97
18569;BME280;14780;48.316;-1.050;2022-11-20T00:14:08;98855.41;;;22.88;43.05
18569;BME280;14780;48.316;-1.050;2022-11-20T00:16:54;98860.91;;;22.93;43.27
18569;BME280;14780;48.316;-1.050;2022-11-20T00:19:38;98866.91;;;23.00;43.44
18569;BME280;14780;48.316;-1.050;2022-11-20T00:22:23;98870.72;;;23.04;43.22
18569;BME280;14780;48.316;-1.050;2022-11-20T00:25:08;98867.72;;;23.05;43.20
18569;BME280;14780;48.316;-1.050;2022-11-20T00:27:53;98857.06;;;23.04;43.21
18569;BME280;14780;48.316;-1.050;2022-11-20T00:30:37;98857.06;;;23.04;43.27
18569;BME280;14780;48.316;-1.050;2022-11-20T00:33:22;98851.59;;;23.04;43.27
18569;BME280;14780;48.316;-1.050;2022-11-20T00:36:10;98854.34;;;23.04;43.25
18569;BME280;14780;48.316;-1.050;2022-11-20T00:38:57;98856.53;;;23.02;43.18
18569;BME280;14780;48.316;-1.050;2022-11-20T00:41:42;98854.06;;;23.00;43.16
18569;BME280;14780;48.316;-1.050;2022-11-20T00:44:27;98847.81;;;23.00;43.15
18569;BME280;14780;48.316;-1.050;2022-11-20T00:47:12;98852.69;;;22.98;43.19
18569;BME280;14780;48.316;-1.050;2022-11-20T00:49:56;98852.69;;;22.98;43.22
18569;BME280;14780;48.316;-1.050;2022-11-20T00:52:41;98853.78;;;22.97;43.16
18569;BME280;14780;48.316;-1.050;2022-11-20T00:55:26;98843.44;;;22.94;43.18
18569;BME280;14780;48.316;-1.050;2022-11-20T00:58:11;98843.44;;;22.94;43.18
18569;BME280;14780;48.316;-1.050;2022-11-20T01:01:01;98842.59;;;22.93;43.05
18569;BME280;14780;48.316;-1.050;2022-11-20T01:03:48;98837.44;;;22.92;43.22
18569;BME280;14780;48.316;-1.050;2022-11-20T01:06:35;98836.06;;;22.89;43.10
18569;BME280;14780;48.316;-1.050;2022-11-20T01:09:21;98824.31;;;22.89;43.18
18569;BME280;14780;48.316;-1.050;2022-11-20T01:12:05;98828.13;;;22.88;43.06
18569;BME280;14780;48.316;-1.050;2022-11-20T01:14:50;98831.13;;;22.86;43.08
18569;BME280;14780;48.316;-1.050;2022-11-20T01:17:35;98820.22;;;22.86;43.17
18569;BME280;14780;48.316;-1.050;2022-11-20T01:20:19;98834.16;;;22.85;43.07
18569;BME280;14780;48.316;-1.050;2022-11-20T01:23:04;98828.69;;;22.85;43.10
18569;BME280;14780;48.316;-1.050;2022-11-20T01:25:49;98823.25;;;22.85;43.13
18569;BME280;14780;48.316;-1.050;2022-11-20T01:28:34;98817.22;;;22.83;43.11
18569;BME280;14780;48.316;-1.050;2022-11-20T01:31:23;98801.94;;;22.82;43.02
18569;BME280;14780;48.316;-1.050;2022-11-20T01:34:15;98803.56;;;22.83;43.04
18569;BME280;14780;48.316;-1.050;2022-11-20T01:37:00;98799.22;;;22.82;43.07
18569;BME280;14780;48.316;-1.050;2022-11-20T01:39:45;98794.84;;;22.81;43.07
18569;BME280;14780;48.316;-1.050;2022-11-20T01:42:30;98783.16;;;22.80;43.02
18569;BME280;14780;48.316;-1.050;2022-11-20T01:46:06;98786.13;;;22.79;43.03
18569;BME280;14780;48.316;-1.050;2022-11-20T01:49:04;98788.03;;;22.78;43.04
18569;BME280;14780;48.316;-1.050;2022-11-20T01:55:13;98782.03;;;22.76;43.18
18569;BME280;14780;48.316;-1.050;2022-11-20T01:58:00;98761.56;;;22.74;43.08
18569;BME280;14780;48.316;-1.050;2022-11-20T02:00:46;98762.66;;;22.73;43.10
18569;BME280;14780;48.316;-1.050;2022-11-20T02:03:31;98763.78;;;22.72;43.19
18569;BME280;14780;48.316;-1.050;2022-11-20T02:06:32;98758.31;;;22.72;43.06
18569;BME280;14780;48.316;-1.050;2022-11-20T02:09:20;98763.78;;;22.72;43.17
18569;BME280;14780;48.316;-1.050;2022-11-20T02:12:04;98770.03;;;22.72;43.23
18569;BME280;14780;48.316;-1.050;2022-11-20T02:14:50;98756.69;;;22.71;43.21
18569;BME280;14780;48.316;-1.050;2022-11-20T02:17:34;98766.75;;;22.70;43.12
18569;BME280;14780;48.316;-1.050;2022-11-20T02:20:19;98758.84;;;22.69;43.18
18569;BME280;14780;48.316;-1.050;2022-11-20T02:23:11;98751.75;;;22.68;43.12
18569;BME280;14780;48.316;-1.050;2022-11-20T02:25:58;98750.13;;;22.67;43.20
18569;BME280;14780;48.316;-1.050;2022-11-20T02:28:46;98751.75;;;22.68;43.22
18569;BME280;14780;48.316;-1.050;2022-11-20T02:31:36;98742.78;;;22.67;43.22
18569;BME280;14780;48.316;-1.050;2022-11-20T02:34:22;98740.03;;;22.67;43.20
18569;BME280;14780;48.316;-1.050;2022-11-20T02:37:07;98741.94;;;22.67;43.25
18569;BME280;14780;48.316;-1.050;2022-11-20T02:39:52;98735.13;;;22.64;43.20
18569;BME280;14780;48.316;-1.050;2022-11-20T02:42:37;98740.56;;;22.64;43.13
18569;BME280;14780;48.316;-1.050;2022-11-20T02:45:22;98740.88;;;22.63;43.15
18569;BME280;14780;48.316;-1.050;2022-11-20T02:48:08;98728.03;;;22.63;43.16
18569;BME280;14780;48.316;-1.050;2022-11-20T02:50:52;98722.84;;;22.62;43.18
18569;BME280;14780;48.316;-1.050;2022-11-20T02:53:37;98724.78;;;22.61;43.13
18569;BME280;14780;48.316;-1.050;2022-11-20T02:56:22;98713.84;;;22.61;43.14
18569;BME280;14780;48.316;-1.050;2022-11-20T02:59:07;98708.41;;;22.61;43.15
18569;BME280;14780;48.316;-1.050;2022-11-20T03:01:52;98701.03;;;22.62;43.19
18569;BME280;14780;48.316;-1.050;2022-11-20T03:04:36;98695.03;;;22.60;43.16
18569;BME280;14780;48.316;-1.050;2022-11-20T03:07:21;98694.25;;;22.59;43.17
18569;BME280;14780;48.316;-1.050;2022-11-20T03:10:06;98687.94;;;22.59;43.06
18569;BME280;14780;48.316;-1.050;2022-11-20T03:12:57;98687.94;;;22.59;43.21
18569;BME280;14780;48.316;-1.050;2022-11-20T03:15:41;98687.94;;;22.59;43.07
18569;BME280;14780;48.316;-1.050;2022-11-20T03:18:28;98684.69;;;22.57;43.18
18569;BME280;14780;48.316;-1.050;2022-11-20T03:21:14;98680.88;;;22.58;43.13
18569;BME280;14780;48.316;-1.050;2022-11-20T03:23:59;98668.84;;;22.54;43.24
18569;BME280;14780;48.316;-1.050;2022-11-20T03:26:44;98674.06;;;22.55;43.18
18569;BME280;14780;48.316;-1.050;2022-11-20T03:29:29;98669.69;;;22.54;43.27
18569;BME280;14780;48.316;-1.050;2022-11-20T03:32:14;98652.50;;;22.54;43.12
18569;BME280;14780;48.316;-1.050;2022-11-20T03:34:58;98650.88;;;22.53;43.26
18569;BME280;14780;48.316;-1.050;2022-11-20T03:37:43;98652.81;;;22.52;43.24
18569;BME280;14780;48.316;-1.050;2022-11-20T03:40:30;98650.34;;;22.51;43.30
18569;BME280;14780;48.316;-1.050;2022-11-20T03:43:14;98635.06;;;22.50;43.23
18569;BME280;14780;48.316;-1.050;2022-11-20T03:45:59;98635.88;;;22.50;43.24
18569;BME280;14780;48.316;-1.050;2022-11-20T03:48:45;98632.63;;;22.48;43.27
18569;BME280;14780;48.316;-1.050;2022-11-20T03:51:35;98628.00;;;22.49;43.27
18569;BME280;14780;48.316;-1.050;2022-11-20T03:54:20;98611.63;;;22.49;43.30
18569;BME280;14780;48.316;-1.050;2022-11-20T03:57:04;98604.56;;;22.48;43.30
18569;BME280;14780;48.316;-1.050;2022-11-20T03:59:49;98603.47;;;22.49;43.34
18569;BME280;14780;48.316;-1.050;2022-11-20T04:02:34;98602.09;;;22.46;43.23
18569;BME280;14780;48.316;-1.050;2022-11-20T04:05:19;98595.81;;;22.46;43.32
18569;BME280;14780;48.316;-1.050;2022-11-20T04:08:04;98586.84;;;22.45;43.25
18569;BME280;14780;48.316;-1.050;2022-11-20T04:10:48;98591.72;;;22.43;43.21
18569;BME280;14780;48.316;-1.050;2022-11-20T04:13:33;98595.53;;;22.42;43.28
18569;BME280;14780;48.316;-1.050;2022-11-20T04:16:18;98590.91;;;22.43;43.31
18569;BME280;14780;48.316;-1.050;2022-11-20T04:19:05;98589.28;;;22.42;43.29
18569;BME280;14780;48.316;-1.050;2022-11-20T04:21:50;98588.44;;;22.41;43.42
18569;BME280;14780;48.316;-1.050;2022-11-20T04:24:35;98582.19;;;22.41;43.34
18569;BME280;14780;48.316;-1.050;2022-11-20T04:27:19;98575.06;;;22.40;43.33
18569;BME280;14780;48.316;-1.050;2022-11-20T04:30:04;98576.16;;;22.39;43.39
18569;BME280;14780;48.316;-1.050;2022-11-20T04:32:49;98571.81;;;22.38;43.42
18569;BME280;14780;48.316;-1.050;2022-11-20T04:35:37;98571.81;;;22.38;43.40
18569;BME280;14780;48.316;-1.050;2022-11-20T04:38:22;98564.72;;;22.37;43.32
18569;BME280;14780;48.316;-1.050;2022-11-20T04:41:16;98571.28;;;22.36;43.39
18569;BME280;14780;48.316;-1.050;2022-11-20T04:44:02;98574.00;;;22.36;43.36
18569;BME280;14780;48.316;-1.050;2022-11-20T04:46:47;98559.84;;;22.34;43.48
18569;BME280;14780;48.316;-1.050;2022-11-20T04:49:32;98565.81;;;22.31;43.38
18569;BME280;14780;48.316;-1.050;2022-11-20T04:52:18;98564.19;;;22.30;43.54
18569;BME280;14780;48.316;-1.050;2022-11-20T04:55:03;98565.28;;;22.29;43.51
18569;BME280;14780;48.316;-1.050;2022-11-20T04:57:50;98560.09;;;22.27;43.59
18569;BME280;14780;48.316;-1.050;2022-11-20T05:00:36;98563.09;;;22.26;43.63
18569;BME280;14780;48.316;-1.050;2022-11-20T05:03:21;98554.13;;;22.25;43.63
18569;BME280;14780;48.316;-1.050;2022-11-20T05:06:06;98548.94;;;22.24;43.54
18569;BME280;14780;48.316;-1.050;2022-11-20T05:08:51;98544.31;;;22.24;43.69
18569;BME280;14780;48.316;-1.050;2022-11-20T05:11:36;98535.56;;;22.22;43.66
18569;BME280;14780;48.316;-1.050;2022-11-20T05:14:20;98522.25;;;22.21;43.69
18569;BME280;14780;48.316;-1.050;2022-11-20T05:17:05;98530.41;;;22.21;43.60
18569;BME280;14780;48.316;-1.050;2022-11-20T05:19:49;98523.34;;;22.20;43.65
18569;BME280;14780;48.316;-1.050;2022-11-20T05:22:34;98517.06;;;22.19;43.71
18569;BME280;14780;48.316;-1.050;2022-11-20T05:25:18;98508.06;;;22.19;43.61
18569;BME280;14780;48.316;-1.050;2022-11-20T05:28:03;98509.97;;;22.13;43.78
18569;BME280;14780;48.316;-1.050;2022-11-20T05:30:48;98509.97;;;22.13;43.74
18569;BME280;14780;48.316;-1.050;2022-11-20T05:33:34;98505.34;;;22.14;43.75
18569;BME280;14780;48.316;-1.050;2022-11-20T05:36:19;98505.34;;;22.14;43.83
18569;BME280;14780;48.316;-1.050;2022-11-20T05:39:04;98500.47;;;22.06;43.88
18569;BME280;14780;48.316;-1.050;2022-11-20T05:41:48;98502.34;;;22.05;43.93
18569;BME280;14780;48.316;-1.050;2022-11-20T05:44:53;98493.34;;;22.10;43.88
18569;BME280;14780;48.316;-1.050;2022-11-20T05:47:38;98497.19;;;21.74;44.64
18569;BME280;14780;48.316;-1.050;2022-11-20T05:50:22;98483.56;;;22.04;43.98
18569;BME280;14780;48.316;-1.050;2022-11-20T05:53:07;98487.38;;;22.08;43.88
18569;BME280;14780;48.316;-1.050;2022-11-20T05:56:03;98484.94;;;22.01;43.94
18569;BME280;14780;48.316;-1.050;2022-11-20T05:58:49;98496.34;;;22.13;43.68
18569;BME280;14780;48.316;-1.050;2022-11-20T06:01:34;98491.72;;;22.09;43.81
18569;BME280;14780;48.316;-1.050;2022-11-20T06:04:20;98490.94;;;22.08;43.83
18569;BME280;14780;48.316;-1.050;2022-11-20T06:07:07;98495.28;;;22.09;43.86
18569;BME280;14780;48.316;-1.050;2022-11-20T06:09:52;98496.38;;;22.08;43.86
18569;BME280;14780;48.316;-1.050;2022-11-20T06:12:37;98503.72;;;22.03;43.96
18569;BME280;14780;48.316;-1.050;2022-11-20T06:15:22;98494.19;;;22.05;43.94
18569;BME280;14780;48.316;-1.050;2022-11-20T06:18:06;98502.09;;;22.02;43.99
18569;BME280;14780;48.316;-1.050;2022-11-20T06:21:06;98499.34;;;21.97;43.95
18569;BME280;14780;48.316;-1.050;2022-11-20T06:23:53;98498.28;;;21.98;44.07
18569;BME280;14780;48.316;-1.050;2022-11-20T06:26:38;98518.44;;;22.02;43.90
18569;BME280;14780;48.316;-1.050;2022-11-20T06:29:22;98511.88;;;22.03;43.96
18569;BME280;14780;48.316;-1.050;2022-11-20T06:32:07;98526.06;;;22.00;44.06
18569;BME280;14780;48.316;-1.050;2022-11-20T06:34:52;98533.41;;;22.04;43.93
18569;BME280;14780;48.316;-1.050;2022-11-20T06:37:36;98605.59;;;22.02;44.02
18569;BME280;14780;48.316;-1.050;2022-11-20T06:40:21;98601.78;;;22.03;43.96
18569;BME280;14780;48.316;-1.050;2022-11-20T06:43:05;98589.78;;;22.04;43.87
18569;BME280;14780;48.316;-1.050;2022-11-20T06:45:54;98611.59;;;21.99;44.04
18569;BME280;14780;48.316;-1.050;2022-11-20T06:48:40;98604.53;;;21.98;44.09
18569;BME280;14780;48.316;-1.050;2022-11-20T06:51:24;98599.88;;;21.98;44.10
18569;BME280;14780;48.316;-1.050;2022-11-20T06:54:09;98600.97;;;21.97;44.04
18569;BME280;14780;48.316;-1.050;2022-11-20T06:56:54;98602.31;;;21.95;44.08
18569;BME280;14780;48.316;-1.050;2022-11-20T06:59:38;98588.97;;;21.98;44.05
18569;BME280;14780;48.316;-1.050;2022-11-20T07:02:23;98573.72;;;21.97;44.01
18569;BME280;14780;48.316;-1.050;2022-11-20T07:05:07;98563.09;;;21.96;44.05
18569;BME280;14780;48.316;-1.050;2022-11-20T07:07:55;98553.84;;;21.97;43.99
18569;BME280;14780;48.316;-1.050;2022-11-20T07:10:40;98559.00;;;21.93;44.05
18569;BME280;14780;48.316;-1.050;2022-11-20T07:13:24;98560.94;;;21.93;44.03
18569;BME280;14780;48.316;-1.050;2022-11-20T07:16:09;98557.09;;;21.89;44.22
18569;BME280;14780;48.316;-1.050;2022-11-20T07:18:54;98560.66;;;21.89;44.21
18569;BME280;14780;48.316;-1.050;2022-11-20T07:21:39;98543.50;;;21.89;44.20
18569;BME280;14780;48.316;-1.050;2022-11-20T07:24:24;98540.50;;;21.90;44.09
18569;BME280;14780;48.316;-1.050;2022-11-20T07:27:09;98538.59;;;21.91;44.18
18569;BME280;14780;48.316;-1.050;2022-11-20T07:29:53;98526.06;;;21.90;44.14
18569;BME280;14780;48.316;-1.050;2022-11-20T07:32:38;98528.25;;;21.88;44.18
18569;BME280;14780;48.316;-1.050;2022-11-20T07:35:23;98524.41;;;21.89;44.17
18569;BME280;14780;48.316;-1.050;2022-11-20T07:38:09;98518.44;;;21.92;44.18
18569;BME280;14780;48.316;-1.050;2022-11-20T07:40:55;98520.06;;;21.83;44.38
18569;BME280;14780;48.316;-1.050;2022-11-20T07:43:40;98524.44;;;21.94;44.12
18569;BME280;14780;48.316;-1.050;2022-11-20T07:46:25;98540.78;;;21.94;44.10
18569;BME280;14780;48.316;-1.050;2022-11-20T07:49:10;98539.16;;;21.93;44.11
18569;BME280;14780;48.316;-1.050;2022-11-20T07:51:54;98541.88;;;21.93;44.20
18569;BME280;14780;48.316;-1.050;2022-11-20T07:54:39;98542.97;;;21.92;44.13
18569;BME280;14780;48.316;-1.050;2022-11-20T07:57:24;98533.16;;;21.91;44.20
18569;BME280;14780;48.316;-1.050;2022-11-20T08:00:10;98534.25;;;21.85;44.29
18569;BME280;14780;48.316;-1.050;2022-11-20T08:02:55;98540.78;;;21.84;44.35
18569;BME280;14780;48.316;-1.050;2022-11-20T08:05:40;98534.78;;;21.82;44.32
18569;BME280;14780;48.316;-1.050;2022-11-20T08:08:25;98548.69;;;21.80;44.42
18569;BME280;14780;48.316;-1.050;2022-11-20T08:11:10;98535.31;;;21.79;44.43
18569;BME280;14780;48.316;-1.050;2022-11-20T08:14:13;98543.50;;;21.79;44.50
18569;BME280;14780;48.316;-1.050;2022-11-20T08:16:58;98547.28;;;21.83;44.60
18569;BME280;14780;48.316;-1.050;2022-11-20T08:19:43;98552.75;;;21.83;44.54
18569;BME280;14780;48.316;-1.050;2022-11-20T08:22:28;98548.38;;;21.82;44.57
18569;BME280;14780;48.316;-1.050;2022-11-20T08:25:13;98548.38;;;21.82;44.66
18569;BME280;14780;48.316;-1.050;2022-11-20T08:27:59;98557.69;;;21.91;44.58
18569;BME280;14780;48.316;-1.050;2022-11-20T08:30:44;98571.28;;;21.91;44.70
18569;BME280;14780;48.316;-1.050;2022-11-20T08:33:30;98574.00;;;21.96;44.55
18569;BME280;14780;48.316;-1.050;2022-11-20T08:36:17;98584.09;;;21.95;44.57
18569;BME280;14780;48.316;-1.050;2022-11-20T08:39:03;98571.28;;;21.91;44.74
18569;BME280;14780;48.316;-1.050;2022-11-20T08:41:48;98578.09;;;21.98;44.71
18569;BME280;14780;48.316;-1.050;2022-11-20T08:44:33;98583.00;;;22.01;44.61
18569;BME280;14780;48.316;-1.050;2022-11-20T08:47:17;98584.63;;;22.02;44.61
18569;BME280;14780;48.316;-1.050;2022-11-20T08:50:02;98589.28;;;22.07;44.66
18569;BME280;14780;48.316;-1.050;2022-11-20T08:52:47;98596.63;;;22.06;44.62
18569;BME280;14780;48.316;-1.050;2022-11-20T08:55:32;98592.25;;;22.05;44.83
18569;BME280;14780;48.316;-1.050;2022-11-20T08:58:19;98584.91;;;22.06;44.80
18569;BME280;14780;48.316;-1.050;2022-11-20T09:01:04;98581.38;;;22.10;44.62
18569;BME280;14780;48.316;-1.050;2022-11-20T09:03:50;98580.00;;;22.13;44.60
18569;BME280;14780;48.316;-1.050;2022-11-20T09:06:34;98589.28;;;22.12;44.71
18569;BME280;14780;48.316;-1.050;2022-11-20T09:09:19;98593.34;;;22.14;44.69
18569;BME280;14780;48.316;-1.050;2022-11-20T09:12:04;98606.16;;;22.09;44.92
18569;BME280;14780;48.316;-1.050;2022-11-20T09:14:48;98607.78;;;22.15;44.88
18569;BME280;14780;48.316;-1.050;2022-11-20T09:17:33;98613.25;;;22.20;44.84
18569;BME280;14780;48.316;-1.050;2022-11-20T09:20:17;98621.44;;;22.20;44.94
18569;BME280;14780;48.316;-1.050;2022-11-20T09:23:03;98620.56;;;21.84;46.00
18569;BME280;14780;48.316;-1.050;2022-11-20T09:25:48;98636.91;;;21.79;45.87
18569;BME280;14780;48.316;-1.050;2022-11-20T09:28:33;98642.63;;;21.78;46.16
18569;BME280;14780;48.316;-1.050;2022-11-20T09:31:25;98654.59;;;21.82;46.42
18569;BME280;14780;48.316;-1.050;2022-11-20T09:34:10;98645.63;;;21.81;45.97
18569;BME280;14780;48.316;-1.050;2022-11-20T09:36:55;98659.25;;;21.81;46.51
18569;BME280;14780;48.316;-1.050;2022-11-20T09:39:39;98664.13;;;21.84;45.99
18569;BME280;14780;48.316;-1.050;2022-11-20T09:42:45;98669.06;;;21.87;46.43
18569;BME280;14780;48.316;-1.050;2022-11-20T09:52:28;98691.66;;;21.93;46.27
18569;BME280;14780;48.316;-1.050;2022-11-20T09:55:17;98703.38;;;21.93;46.02
18569;BME280;14780;48.316;-1.050;2022-11-20T09:58:06;98688.69;;;21.99;45.91
18569;BME280;14780;48.316;-1.050;2022-11-20T10:00:53;98692.78;;;22.02;46.22
18569;BME280;14780;48.316;-1.050;2022-11-20T10:06:39;98705.34;;;22.13;45.69
18569;BME280;14780;48.316;-1.050;2022-11-20T10:09:38;98708.31;;;22.11;45.93
18569;BME280;14780;48.316;-1.050;2022-11-20T10:15:33;98704.78;;;22.06;46.05
18569;BME280;14780;48.316;-1.050;2022-11-20T10:18:40;98699.34;;;22.06;46.05
18569;BME280;14780;48.316;-1.050;2022-11-20T10:24:48;98702.59;;;22.08;46.37
18569;BME280;14780;48.316;-1.050;2022-11-20T10:30:42;98706.44;;;22.12;46.23
18569;BME280;14780;48.316;-1.050;2022-11-20T10:33:36;98709.97;;;22.12;46.04
18569;BME280;14780;48.316;-1.050;2022-11-20T10:36:26;98706.16;;;22.13;45.98
18569;BME280;14780;48.316;-1.050;2022-11-20T10:39:24;98717.06;;;22.18;45.97
18569;BME280;14780;48.316;-1.050;2022-11-20T10:42:14;98710.78;;;22.18;45.97
18569;BME280;14780;48.316;-1.050;2022-11-20T10:48:23;98702.09;;;22.21;46.23
18569;BME280;14780;48.316;-1.050;2022-11-20T10:57:25;98707.59;;;22.66;46.05
18569;BME280;14780;48.316;-1.050;2022-11-20T11:00:15;98708.66;;;22.75;45.98
18569;BME280;14780;48.316;-1.050;2022-11-20T11:03:01;98712.50;;;22.74;45.96
18569;BME280;14780;48.316;-1.050;2022-11-20T11:05:55;98715.75;;;22.76;45.95
18569;BME280;14780;48.316;-1.050;2022-11-20T11:08:44;98728.84;;;22.79;46.14
18569;BME280;14780;48.316;-1.050;2022-11-20T11:11:33;98714.13;;;22.55;47.09
18569;BME280;14780;48.316;-1.050;2022-11-20T11:14:18;98720.13;;;22.67;47.61
18569;BME280;14780;48.316;-1.050;2022-11-20T11:17:03;98730.47;;;22.95;46.74
18569;BME280;14780;48.316;-1.050;2022-11-20T11:20:04;98740.56;;;23.04;46.28
18569;BME280;14780;48.316;-1.050;2022-11-20T11:22:55;98728.81;;;23.04;46.15
18569;BME280;14780;48.316;-1.050;2022-11-20T11:25:40;98725.28;;;22.93;46.54
18569;BME280;14780;48.316;-1.050;2022-11-20T11:28:25;98719.03;;;22.93;46.55
18569;BME280;14780;48.316;-1.050;2022-11-20T11:31:10;98726.09;;;23.09;46.23
18569;BME280;14780;48.316;-1.050;2022-11-20T11:34:14;98717.91;;;23.14;46.21
18569;BME280;14780;48.316;-1.050;2022-11-20T11:37:01;98714.63;;;23.17;46.12
18569;BME280;14780;48.316;-1.050;2022-11-20T11:39:48;98715.47;;;23.17;46.33
18569;BME280;14780;48.316;-1.050;2022-11-20T11:42:32;98704.25;;;23.24;46.24
18569;BME280;14780;48.316;-1.050;2022-11-20T11:45:18;98705.88;;;23.30;46.35
18569;BME280;14780;48.316;-1.050;2022-11-20T11:48:03;98694.41;;;23.33;46.54
18569;BME280;14780;48.316;-1.050;2022-11-20T11:50:52;98710.22;;;23.36;46.64
18569;BME280;14780;48.316;-1.050;2022-11-20T11:53:41;98707.19;;;23.42;46.67
18569;BME280;14780;48.316;-1.050;2022-11-20T11:56:27;98708.28;;;23.46;46.78
18569;BME280;14780;48.316;-1.050;2022-11-20T11:59:37;98702.00;;;23.50;46.84
18569;BME280;14780;48.316;-1.050;2022-11-20T12:08:24;98711.53;;;23.53;46.79
18569;BME280;14780;48.316;-1.050;2022-11-20T12:11:24;98710.72;;;23.52;46.78
18569;BME280;14780;48.316;-1.050;2022-11-20T12:14:22;98718.38;;;23.50;46.78
18569;BME280;14780;48.316;-1.050;2022-11-20T12:17:12;98732.56;;;23.47;46.82
18569;BME280;14780;48.316;-1.050;2022-11-20T12:19:58;98729.03;;;23.47;46.96
18569;BME280;14780;48.316;-1.050;2022-11-20T12:22:52;98727.94;;;23.48;47.01
18569;BME280;14780;48.316;-1.050;2022-11-20T12:25:38;98722.75;;;23.46;46.86
18569;BME280;14780;48.316;-1.050;2022-11-20T12:28:56;98734.50;;;23.47;47.03
18569;BME280;14780;48.316;-1.050;2022-11-20T12:35:04;98739.69;;;23.48;47.41
18569;BME280;14780;48.316;-1.050;2022-11-20T12:38:07;98737.22;;;23.52;47.31
18569;BME280;14780;48.316;-1.050;2022-11-20T12:54:27;98740.75;;;23.57;47.50
18569;BME280;14780;48.316;-1.050;2022-11-20T13:00:22;98736.66;;;23.55;47.63
18569;BME280;14780;48.316;-1.050;2022-11-20T13:08:56;98738.00;;;23.57;47.40
18569;BME280;14780;48.316;-1.050;2022-11-20T13:11:44;98746.19;;;23.57;47.20
18569;BME280;14780;48.316;-1.050;2022-11-20T13:14:42;98752.19;;;23.54;47.17
18569;BME280;14780;48.316;-1.050;2022-11-20T13:20:27;98752.19;;;23.54;47.13
18569;BME280;14780;48.316;-1.050;2022-11-20T13:23:27;98751.41;;;23.54;47.20
18569;BME280;14780;48.316;-1.050;2022-11-20T13:26:22;98744.28;;;23.58;47.00
18569;BME280;14780;48.316;-1.050;2022-11-20T13:29:16;98753.31;;;23.58;46.95
18569;BME280;14780;48.316;-1.050;2022-11-20T13:35:01;98742.38;;;23.58;46.78
18569;BME280;14780;48.316;-1.050;2022-11-20T13:37:58;98758.75;;;23.58;46.84
18569;BME280;14780;48.316;-1.050;2022-11-20T13:40:54;98750.56;;;23.58;46.72
18569;BME280;14780;48.316;-1.050;2022-11-20T13:43:41;98744.53;;;23.61;46.62
18569;BME280;14780;48.316;-1.050;2022-11-20T13:46:46;98742.38;;;23.58;46.43
18569;BME280;14780;48.316;-1.050;2022-11-20T13:49:38;98747.25;;;23.61;46.52
18569;BME280;14780;48.316;-1.050;2022-11-20T13:52:58;98748.09;;;23.62;46.51
18569;BME280;14780;48.316;-1.050;2022-11-20T13:56:08;98746.16;;;23.62;46.41
18569;BME280;14780;48.316;-1.050;2022-11-20T13:59:27;98735.25;;;23.62;46.20
18569;BME280;14780;48.316;-1.050;2022-11-20T14:02:17;98745.38;;;23.62;46.40
18569;BME280;14780;48.316;-1.050;2022-11-20T14:05:04;98740.44;;;23.64;46.32
18569;BME280;14780;48.316;-1.050;2022-11-20T14:07:50;98733.34;;;23.63;46.30
18569;BME280;14780;48.316;-1.050;2022-11-20T14:10:36;98734.19;;;23.63;46.21
18569;BME280;14780;48.316;-1.050;2022-11-20T14:13:23;98746.72;;;23.64;46.17
18569;BME280;14780;48.316;-1.050;2022-11-20T14:16:09;98756.56;;;23.65;46.14
18569;BME280;14780;48.316;-1.050;2022-11-20T14:18:55;98753.56;;;23.67;46.14
18569;BME280;14780;48.316;-1.050;2022-11-20T14:21:41;98760.91;;;23.66;45.95
18569;BME280;14780;48.316;-1.050;2022-11-20T14:24:26;98772.66;;;23.67;46.13
18569;BME280;14780;48.316;-1.050;2022-11-20T14:27:19;98778.41;;;23.60;45.76
18569;BME280;14780;48.316;-1.050;2022-11-20T14:30:05;98774.56;;;23.61;45.79
18569;BME280;14780;48.316;-1.050;2022-11-20T14:32:52;98767.50;;;23.60;45.89
18569;BME280;14780;48.316;-1.050;2022-11-20T14:35:47;98768.31;;;23.61;45.68
18569;BME280;14780;48.316;-1.050;2022-11-20T14:38:33;98765.03;;;23.59;45.85
18569;BME280;14780;48.316;-1.050;2022-11-20T14:41:22;98764.50;;;23.57;45.76
18569;BME280;14780;48.316;-1.050;2022-11-20T14:44:10;98768.06;;;23.57;45.73
18569;BME280;14780;48.316;-1.050;2022-11-20T14:46:55;98770.50;;;23.59;45.72
18569;BME280;14780;48.316;-1.050;2022-11-20T14:49:42;98771.84;;;23.61;45.66
18569;BME280;14780;48.316;-1.050;2022-11-20T14:52:28;98772.41;;;23.63;45.76
18569;BME280;14780;48.316;-1.050;2022-11-20T14:55:26;98775.41;;;23.67;45.46
18569;BME280;14780;48.316;-1.050;2022-11-20T14:58:25;98784.41;;;23.67;45.52
18569;BME280;14780;48.316;-1.050;2022-11-20T15:01:13;98772.09;;;23.70;45.67
18569;BME280;14780;48.316;-1.050;2022-11-20T15:04:10;98777.81;;;23.73;45.67
18569;BME280;14780;48.316;-1.050;2022-11-20T15:06:57;98785.75;;;23.75;45.74
18569;BME280;14780;48.316;-1.050;2022-11-20T15:09:42;98784.94;;;23.69;45.66
18569;BME280;14780;48.316;-1.050;2022-11-20T15:12:27;98781.66;;;23.72;45.66
18569;BME280;14780;48.316;-1.050;2022-11-20T15:15:15;98783.28;;;23.73;45.58
18569;BME280;14780;48.316;-1.050;2022-11-20T15:18:01;98792.59;;;23.72;45.75
18569;BME280;14780;48.316;-1.050;2022-11-20T15:20:46;98794.22;;;23.73;45.76
18569;BME280;14780;48.316;-1.050;2022-11-20T15:23:31;98785.44;;;23.76;45.98
18569;BME280;14780;48.316;-1.050;2022-11-20T15:26:26;98788.81;;;23.53;46.54
18569;BME280;14780;48.316;-1.050;2022-11-20T15:29:14;98783.66;;;23.52;46.57
18569;BME280;14780;48.316;-1.050;2022-11-20T15:31:59;98793.72;;;23.51;46.33
18569;BME280;14780;48.316;-1.050;2022-11-20T15:34:43;98796.47;;;23.46;46.77
18569;BME280;14780;48.316;-1.050;2022-11-20T15:37:28;98781.75;;;23.38;47.11
18569;BME280;14780;48.316;-1.050;2022-11-20T15:40:13;98784.19;;;23.44;46.90
18569;BME280;14780;48.316;-1.050;2022-11-20T15:42:58;98789.38;;;23.50;46.59
18569;BME280;14780;48.316;-1.050;2022-11-20T15:45:51;98784.13;;;23.59;46.67